createdAt,value
2023-01-05T00:01:25.838Z,8.51
2023-01-05T00:03:53.091Z,8.48
2023-01-05T00:06:20.559Z,8.47
2023-01-05T00:08:48.239Z,8.46
2023-01-05T00:11:39.655Z,8.45
2023-01-05T00:14:32.905Z,8.41
2023-01-05T00:17:19.263Z,8.40
2023-01-05T00:20:05.604Z,8.39
2023-01-05T00:22:39.257Z,8.38
2023-01-05T00:25:18.677Z,8.38
2023-01-05T00:27:50.628Z,8.39
2023-01-05T00:30:32.479Z,8.38
2023-01-05T00:32:59.884Z,8.38
2023-01-05T00:35:28.824Z,8.39
2023-01-05T00:37:56.093Z,8.38
2023-01-05T00:40:23.734Z,8.39
2023-01-05T00:42:51.109Z,8.38
2023-01-05T00:45:19.661Z,8.40
2023-01-05T00:47:49.123Z,8.41
2023-01-05T00:50:18.545Z,8.41
2023-01-05T00:52:46.947Z,8.41
2023-01-05T00:55:14.815Z,8.40
2023-01-05T00:57:42.401Z,8.39
2023-01-05T01:00:15.421Z,8.39
2023-01-05T01:02:43.123Z,8.39
2023-01-05T01:05:10.966Z,8.37
2023-01-05T01:07:38.372Z,8.35
2023-01-05T01:10:07.090Z,8.33
2023-01-05T01:12:34.924Z,8.32
2023-01-05T01:15:02.595Z,8.30
2023-01-05T01:17:32.323Z,8.29
2023-01-05T01:19:59.682Z,8.28
2023-01-05T01:22:26.973Z,8.28
2023-01-05T01:24:54.702Z,8.28
2023-01-05T01:27:22.076Z,8.27
2023-01-05T01:29:49.428Z,8.28
2023-01-05T01:32:16.764Z,8.29
2023-01-05T01:34:45.183Z,8.30
2023-01-05T01:37:13.259Z,8.32
2023-01-05T01:39:46.177Z,8.32
2023-01-05T01:42:16.349Z,8.32
2023-01-05T01:45:37.731Z,8.33
2023-01-05T01:48:06.127Z,8.36
2023-01-05T01:50:41.586Z,8.35
2023-01-05T01:53:14.874Z,8.36
2023-01-05T01:55:43.111Z,8.37
2023-01-05T01:58:16.624Z,8.37
2023-01-05T02:00:46.585Z,8.37
2023-01-05T02:03:15.037Z,8.39
2023-01-05T02:05:42.399Z,8.42
2023-01-05T02:08:13.167Z,8.43
2023-01-05T02:11:12.516Z,8.46
2023-01-05T02:13:45.401Z,8.45
2023-01-05T02:16:35.560Z,8.46
2023-01-05T02:19:22.621Z,8.46
2023-01-05T02:22:23.641Z,8.45
2023-01-05T02:24:56.111Z,8.45
2023-01-05T02:27:38.824Z,8.44
2023-01-05T02:30:27.758Z,8.46
2023-01-05T02:33:22.955Z,8.47
2023-01-05T02:36:13.605Z,8.47
2023-01-05T02:38:46.563Z,8.48
2023-01-05T02:41:34.959Z,8.50
2023-01-05T02:44:04.100Z,8.52
2023-01-05T02:46:31.441Z,8.53
2023-01-05T02:49:00.297Z,8.54
2023-01-05T02:51:36.800Z,8.54
2023-01-05T02:54:38.371Z,8.53
2023-01-05T02:57:18.202Z,8.52
2023-01-05T02:59:53.873Z,8.50
2023-01-05T03:02:31.388Z,8.48
2023-01-05T03:05:10.641Z,8.48
2023-01-05T03:07:40.714Z,8.49
2023-01-05T03:10:32.772Z,8.46
2023-01-05T03:13:26.284Z,8.45
2023-01-05T03:16:02.097Z,8.45
2023-01-05T03:18:54.446Z,8.46
2023-01-05T03:21:24.000Z,8.45
2023-01-05T03:24:10.571Z,8.46
2023-01-05T03:26:58.860Z,8.46
2023-01-05T03:29:46.209Z,8.46
2023-01-05T03:32:44.558Z,8.46
2023-01-05T03:35:31.908Z,8.47
2023-01-05T03:38:14.740Z,8.47
2023-01-05T03:40:46.397Z,8.48
2023-01-05T03:43:14.778Z,8.49
2023-01-05T03:45:46.284Z,8.49
2023-01-05T03:48:22.113Z,8.49
2023-01-05T03:50:49.913Z,8.49
2023-01-05T03:53:19.745Z,8.51
2023-01-05T03:55:47.301Z,8.50
2023-01-05T03:58:14.947Z,8.51
2023-01-05T04:00:47.021Z,8.52
2023-01-05T04:03:17.155Z,8.54
2023-01-05T04:05:44.620Z,8.53
2023-01-05T04:08:12.965Z,8.52
2023-01-05T04:10:40.304Z,8.54
2023-01-05T04:13:09.045Z,8.55
2023-01-05T04:15:37.032Z,8.55
2023-01-05T04:18:06.267Z,8.58
2023-01-05T04:20:33.726Z,8.58
2023-01-05T04:23:01.917Z,8.60
2023-01-05T04:25:30.743Z,8.59
2023-01-05T04:28:10.944Z,8.58
2023-01-05T04:30:38.991Z,8.57
2023-01-05T04:33:06.513Z,8.58
2023-01-05T04:35:34.437Z,8.57
2023-01-05T04:38:01.726Z,8.55
2023-01-05T04:40:29.471Z,8.53
2023-01-05T04:42:57.063Z,8.49
2023-01-05T04:45:25.527Z,8.46
2023-01-05T04:47:52.894Z,8.45
2023-01-05T04:50:23.609Z,8.42
2023-01-05T04:52:51.166Z,8.42
2023-01-05T04:55:21.350Z,8.39
2023-01-05T04:57:48.763Z,8.40
2023-01-05T05:00:18.926Z,8.39
2023-01-05T05:02:48.194Z,8.40
2023-01-05T05:05:16.469Z,8.40
2023-01-05T05:07:43.814Z,8.41
2023-01-05T05:10:13.078Z,8.44
2023-01-05T05:12:42.626Z,8.44
2023-01-05T05:15:11.914Z,8.46
2023-01-05T05:17:43.988Z,8.45
2023-01-05T05:20:13.786Z,8.44
2023-01-05T05:22:41.920Z,8.40
2023-01-05T05:25:11.678Z,8.38
2023-01-05T05:27:43.596Z,8.38
2023-01-05T05:30:11.216Z,8.37
2023-01-05T05:32:44.002Z,8.36
2023-01-05T05:35:12.131Z,8.33
2023-01-05T05:37:39.444Z,8.33
2023-01-05T05:40:07.231Z,8.34
2023-01-05T05:42:34.605Z,8.36
2023-01-05T05:45:01.824Z,8.37
2023-01-05T05:47:29.386Z,8.38
2023-01-05T05:49:56.696Z,8.38
2023-01-05T05:52:24.003Z,8.38
2023-01-05T05:54:51.443Z,8.39
2023-01-05T05:57:18.789Z,8.40
2023-01-05T05:59:46.171Z,8.41
2023-01-05T06:02:13.767Z,8.40
2023-01-05T06:04:41.233Z,8.40
2023-01-05T06:07:08.483Z,8.39
2023-01-05T06:09:36.122Z,8.40
2023-01-05T06:12:03.826Z,8.42
2023-01-05T06:14:32.633Z,8.42
2023-01-05T06:17:01.147Z,8.39
2023-01-05T06:19:28.361Z,8.40
2023-01-05T06:21:55.638Z,8.41
2023-01-05T06:24:24.210Z,8.42
2023-01-05T06:26:51.442Z,8.42
2023-01-05T06:29:18.981Z,8.39
2023-01-05T06:31:46.814Z,8.40
2023-01-05T06:34:14.173Z,8.41
2023-01-05T06:36:41.483Z,8.40
2023-01-05T06:39:08.751Z,8.42
2023-01-05T06:41:36.070Z,8.39
2023-01-05T06:44:03.505Z,8.39
2023-01-05T06:46:31.395Z,8.38
2023-01-05T06:48:58.947Z,8.38
2023-01-05T06:51:26.170Z,8.38
2023-01-05T06:53:53.514Z,8.38
2023-01-05T06:56:20.815Z,8.38
2023-01-05T06:58:48.244Z,8.38
2023-01-05T07:01:15.647Z,8.35
2023-01-05T07:03:43.145Z,8.34
2023-01-05T07:06:15.104Z,8.33
2023-01-05T07:08:43.253Z,8.30
2023-01-05T07:11:10.676Z,8.29
2023-01-05T07:13:37.907Z,8.27
2023-01-05T07:16:05.682Z,8.25
2023-01-05T07:18:33.272Z,8.24
2023-01-05T07:21:00.832Z,8.22
2023-01-05T07:23:29.045Z,8.20
2023-01-05T07:26:01.308Z,8.16
2023-01-05T07:28:28.684Z,8.12
2023-01-05T07:30:56.184Z,8.09
2023-01-05T07:33:23.522Z,8.05
2023-01-05T07:35:51.065Z,8.04
2023-01-05T07:38:18.364Z,8.02
2023-01-05T07:40:45.762Z,8.00
2023-01-05T07:43:13.615Z,7.98
2023-01-05T07:45:40.930Z,7.98
2023-01-05T07:48:08.410Z,7.98
2023-01-05T07:50:35.930Z,7.95
2023-01-05T07:53:03.215Z,7.94
2023-01-05T07:55:30.874Z,7.89
2023-01-05T07:57:58.303Z,7.84
2023-01-05T08:00:25.814Z,7.79
2023-01-05T08:02:53.251Z,7.73
2023-01-05T08:05:20.539Z,7.69
2023-01-05T08:07:47.828Z,7.69
2023-01-05T08:10:30.466Z,7.64
2023-01-05T08:13:20.953Z,7.59
2023-01-05T08:15:51.369Z,7.56
2023-01-05T08:18:19.489Z,7.56
2023-01-05T08:20:58.173Z,7.54
2023-01-05T08:23:27.569Z,7.58
2023-01-05T08:25:55.644Z,7.60
2023-01-05T08:28:31.395Z,7.60
2023-01-05T08:31:07.514Z,7.62
2023-01-05T08:33:35.053Z,7.61
2023-01-05T08:36:07.267Z,7.61
2023-01-05T08:38:34.642Z,7.61
2023-01-05T08:41:01.923Z,7.60
2023-01-05T08:43:29.431Z,7.57
2023-01-05T08:45:57.053Z,7.55
2023-01-05T08:48:24.361Z,7.54
2023-01-05T08:50:51.653Z,7.53
2023-01-05T08:53:19.016Z,7.52
2023-01-05T08:55:46.429Z,7.51
2023-01-05T08:58:13.821Z,7.53
2023-01-05T09:00:41.029Z,7.54
2023-01-05T09:03:09.630Z,7.56
2023-01-05T09:05:37.004Z,7.60
2023-01-05T09:08:05.234Z,7.63
2023-01-05T09:10:32.969Z,7.65
2023-01-05T09:13:00.196Z,7.66
2023-01-05T09:15:27.453Z,7.70
2023-01-05T09:17:54.777Z,7.74
2023-01-05T09:20:22.056Z,7.80
2023-01-05T09:22:49.263Z,7.88
2023-01-05T09:25:16.705Z,7.94
2023-01-05T09:27:44.034Z,7.96
2023-01-05T09:30:12.276Z,8.00
2023-01-05T09:32:40.303Z,8.04
2023-01-05T09:35:09.364Z,8.09
2023-01-05T09:37:36.668Z,8.11
2023-01-05T09:40:04.307Z,8.14
2023-01-05T09:42:34.020Z,8.16
2023-01-05T09:45:06.196Z,8.19
2023-01-05T09:47:39.949Z,8.20
2023-01-05T09:50:17.154Z,8.24
2023-01-05T09:52:44.660Z,8.30
2023-01-05T09:55:17.551Z,8.34
2023-01-05T09:58:01.944Z,8.39
2023-01-05T10:00:29.837Z,8.44
2023-01-05T10:03:37.017Z,8.45
2023-01-05T10:06:03.276Z,8.44
2023-01-05T10:08:41.295Z,8.44
2023-01-05T10:11:40.809Z,8.38
2023-01-05T10:14:13.812Z,8.38
2023-01-05T10:16:45.177Z,8.38
2023-01-05T10:19:18.658Z,8.40
2023-01-05T10:22:09.228Z,8.43
2023-01-05T10:24:59.273Z,8.46
2023-01-05T10:27:45.024Z,8.46
2023-01-05T10:30:27.680Z,8.48
2023-01-05T10:33:35.723Z,8.44
2023-01-05T10:36:13.205Z,8.45
2023-01-05T10:39:20.877Z,8.49
2023-01-05T10:41:48.149Z,8.52
2023-01-05T10:44:27.413Z,8.56
2023-01-05T10:46:55.016Z,8.61
2023-01-05T10:49:28.474Z,8.61
2023-01-05T10:52:01.293Z,8.63
2023-01-05T10:54:50.182Z,8.65
2023-01-05T10:57:35.953Z,8.67
2023-01-05T11:00:10.336Z,8.70
2023-01-05T11:02:41.543Z,8.71
2023-01-05T11:05:11.981Z,8.71
2023-01-05T11:07:50.881Z,8.69
2023-01-05T11:10:26.086Z,8.71
2023-01-05T11:13:16.603Z,8.75
2023-01-05T11:15:56.441Z,8.75
2023-01-05T11:18:31.288Z,8.71
2023-01-05T11:21:14.025Z,8.69
2023-01-05T11:23:50.394Z,8.67
2023-01-05T11:26:21.446Z,8.67
2023-01-05T11:28:59.196Z,8.71
2023-01-05T11:31:36.983Z,8.72
2023-01-05T11:34:22.195Z,8.75
2023-01-05T11:36:55.900Z,8.77
2023-01-05T11:39:29.983Z,8.80
2023-01-05T11:42:12.616Z,8.84
2023-01-05T11:44:43.988Z,8.88
2023-01-05T11:47:22.273Z,8.92
2023-01-05T11:49:58.675Z,8.95
2023-01-05T11:52:38.281Z,8.98
2023-01-05T11:55:21.682Z,8.98
2023-01-05T11:57:54.232Z,9.00
2023-01-05T12:00:27.355Z,8.98
2023-01-05T12:03:26.714Z,8.98
2023-01-05T12:05:57.385Z,8.92
2023-01-05T12:08:34.682Z,8.92
2023-01-05T12:11:20.124Z,8.89
2023-01-05T12:14:51.946Z,8.88
2023-01-05T12:17:30.272Z,8.86
2023-01-05T12:20:13.942Z,8.87
2023-01-05T12:22:46.969Z,8.87
2023-01-05T12:25:33.006Z,8.86
2023-01-05T12:28:11.271Z,8.87
2023-01-05T12:36:47.813Z,8.81
2023-01-05T12:39:21.143Z,8.76
2023-01-05T12:42:05.800Z,8.72
2023-01-05T12:44:55.008Z,8.69
2023-01-05T12:48:06.009Z,8.69
2023-01-05T12:50:36.406Z,8.68
2023-01-05T12:53:17.736Z,8.68
2023-01-05T12:55:53.673Z,8.68
2023-01-05T12:58:30.127Z,8.69
2023-01-05T13:01:00.088Z,8.70
2023-01-05T13:03:41.215Z,8.72
2023-01-05T13:06:11.323Z,8.74
2023-01-05T13:08:42.407Z,8.76
2023-01-05T13:11:31.564Z,8.78
2023-01-05T13:14:05.353Z,8.81
2023-01-05T13:16:40.415Z,8.84
2023-01-05T13:19:26.623Z,8.82
2023-01-05T13:21:55.107Z,8.82
2023-01-05T13:24:35.424Z,8.81
2023-01-05T13:27:03.644Z,8.81
2023-01-05T13:29:45.167Z,8.82
2023-01-05T13:35:05.101Z,8.83
2023-01-05T13:37:42.938Z,8.83
2023-01-05T13:40:33.272Z,8.83
2023-01-05T13:43:30.273Z,8.82
2023-01-05T13:46:12.315Z,8.80
2023-01-05T13:49:04.153Z,8.83
2023-01-05T13:51:43.231Z,8.83
2023-01-05T13:54:25.657Z,8.88
2023-01-05T13:56:53.339Z,8.89
2023-01-05T13:59:35.844Z,8.90
2023-01-05T14:02:27.375Z,8.89
2023-01-05T14:04:55.203Z,8.90
2023-01-05T14:07:24.366Z,8.90
2023-01-05T14:09:55.728Z,8.91
2023-01-05T14:12:26.837Z,8.92
2023-01-05T14:15:00.728Z,8.90
2023-01-05T14:17:51.770Z,8.87
2023-01-05T14:20:46.906Z,8.83
2023-01-05T14:23:23.844Z,8.81
2023-01-05T14:25:54.059Z,8.78
2023-01-05T14:28:30.571Z,8.78
2023-01-05T14:31:21.690Z,8.77
2023-01-05T14:33:57.189Z,8.75
2023-01-05T14:36:34.794Z,8.74
2023-01-05T14:39:19.772Z,8.70
2023-01-05T14:41:58.716Z,8.67
2023-01-05T14:44:32.064Z,8.66
2023-01-05T14:47:00.581Z,8.66
2023-01-05T14:49:34.248Z,8.65
2023-01-05T14:52:04.465Z,8.64
2023-01-05T14:54:40.984Z,8.63
2023-01-05T14:57:21.923Z,8.62
2023-01-05T14:59:51.937Z,8.60
2023-01-05T15:02:24.715Z,8.61
2023-01-05T15:07:34.197Z,8.59
2023-01-05T15:10:04.684Z,8.57
2023-01-05T15:12:47.182Z,8.55
2023-01-05T15:15:48.702Z,8.54
2023-01-05T15:21:28.212Z,8.52
2023-01-05T15:24:04.958Z,8.53
2023-01-05T15:26:54.086Z,8.52
2023-01-05T15:29:48.313Z,8.51
2023-01-05T15:32:32.614Z,8.52
2023-01-05T15:35:18.100Z,8.52
2023-01-05T15:37:52.372Z,8.52
2023-01-05T15:40:22.869Z,8.52
2023-01-05T15:42:53.507Z,8.51
2023-01-05T15:45:35.577Z,8.50
2023-01-05T15:48:14.284Z,8.50
2023-01-05T15:50:49.727Z,8.49
2023-01-05T15:53:44.103Z,8.45
2023-01-05T15:56:41.265Z,8.40
2023-01-05T15:59:41.840Z,8.36
2023-01-05T16:02:28.119Z,8.32
2023-01-05T16:05:20.391Z,8.28
2023-01-05T16:07:50.830Z,8.29
2023-01-05T16:10:38.200Z,8.27
2023-01-05T16:13:24.342Z,8.26
2023-01-05T16:16:04.883Z,8.26
2023-01-05T16:18:39.874Z,8.25
2023-01-05T16:21:15.879Z,8.25
2023-01-05T16:23:56.725Z,8.24
2023-01-05T16:26:24.376Z,8.22
2023-01-05T16:28:51.668Z,8.22
2023-01-05T16:31:29.518Z,8.20
2023-01-05T16:34:16.949Z,8.19
2023-01-05T16:37:05.105Z,8.18
2023-01-05T16:39:36.965Z,8.18
2023-01-05T16:42:40.871Z,8.18
2023-01-05T16:45:22.718Z,8.17
2023-01-05T16:47:52.466Z,8.15
2023-01-05T16:50:19.923Z,8.16
2023-01-05T16:53:04.029Z,8.15
2023-01-05T16:55:36.860Z,8.15
2023-01-05T16:58:26.025Z,8.14
2023-01-05T17:00:53.476Z,8.13
2023-01-05T17:03:28.584Z,8.12
2023-01-05T17:05:58.617Z,8.11
2023-01-05T17:08:30.699Z,8.10
2023-01-05T17:11:00.517Z,8.10
2023-01-05T17:13:39.885Z,8.10
2023-01-05T17:16:11.137Z,8.10
2023-01-05T17:18:38.489Z,8.10
2023-01-05T17:21:07.734Z,8.11
2023-01-05T17:23:47.294Z,8.10
2023-01-05T17:26:22.382Z,8.12
2023-01-05T17:28:50.201Z,8.12
2023-01-05T17:31:17.488Z,8.12
2023-01-05T17:33:44.775Z,8.12
2023-01-05T17:38:43.218Z,8.14
2023-01-05T17:41:19.976Z,8.14
2023-01-05T17:43:47.867Z,8.14
2023-01-05T17:46:21.027Z,8.16
2023-01-05T17:48:49.350Z,8.16
2023-01-05T17:51:16.801Z,8.15
2023-01-05T17:53:44.088Z,8.14
2023-01-05T17:56:11.631Z,8.12
2023-01-05T17:58:39.340Z,8.12
2023-01-05T18:01:06.930Z,8.12
2023-01-05T18:03:34.199Z,8.11
2023-01-05T18:06:02.086Z,8.11
2023-01-05T18:08:29.779Z,8.10
2023-01-05T18:11:01.508Z,8.10
2023-01-05T18:13:28.778Z,8.10
2023-01-05T18:18:26.965Z,8.09
2023-01-05T18:21:00.751Z,8.09
2023-01-05T18:23:28.554Z,8.08
2023-01-05T18:25:56.165Z,8.09
2023-01-05T18:28:23.460Z,8.07
2023-01-05T18:30:50.945Z,8.06
2023-01-05T18:33:18.238Z,8.05
2023-01-05T18:35:45.519Z,8.04
2023-01-05T18:38:15.379Z,8.04
2023-01-05T18:40:46.966Z,8.03
2023-01-05T18:43:14.343Z,8.02
2023-01-05T18:45:41.669Z,8.01
2023-01-05T18:48:09.692Z,8.01
2023-01-05T18:50:43.192Z,8.02
2023-01-05T18:53:10.696Z,8.02
2023-01-05T18:55:42.192Z,8.04
2023-01-05T18:58:12.422Z,8.04
2023-01-05T19:00:45.236Z,8.04
2023-01-05T19:03:12.997Z,8.05
2023-01-05T19:05:41.958Z,8.07
2023-01-05T19:08:11.657Z,8.07
2023-01-05T19:10:39.139Z,8.09
2023-01-05T19:13:06.947Z,8.10
2023-01-05T19:15:36.670Z,8.11
2023-01-05T19:18:04.690Z,8.10
2023-01-05T19:20:32.124Z,8.10
2023-01-05T19:23:01.232Z,8.12
2023-01-05T19:25:29.897Z,8.12
2023-01-05T19:28:01.214Z,8.12
2023-01-05T19:30:29.453Z,8.12
2023-01-05T19:32:56.769Z,8.14
2023-01-05T19:35:24.031Z,8.14
2023-01-05T19:37:51.276Z,8.15
2023-01-05T19:40:18.568Z,8.15
2023-01-05T19:42:45.805Z,8.14
2023-01-05T19:45:13.167Z,8.14
2023-01-05T19:47:41.558Z,8.15
2023-01-05T19:50:11.148Z,8.15
2023-01-05T19:52:39.272Z,8.15
2023-01-05T19:55:07.771Z,8.15
2023-01-05T19:57:35.421Z,8.15
2023-01-05T20:00:03.571Z,8.15
2023-01-05T20:02:39.408Z,8.15
2023-01-05T20:05:07.327Z,8.15
2023-01-05T20:07:34.833Z,8.15
2023-01-05T20:10:02.151Z,8.15
2023-01-05T20:12:29.642Z,8.14
2023-01-05T20:14:57.193Z,8.15
2023-01-05T20:17:24.522Z,8.15
2023-01-05T20:19:51.788Z,8.15
2023-01-05T20:22:19.173Z,8.17
2023-01-05T20:24:47.021Z,8.16
2023-01-05T20:27:17.022Z,8.17
2023-01-05T20:29:44.478Z,8.16
2023-01-05T20:32:15.424Z,8.18
2023-01-05T20:34:45.276Z,8.17
2023-01-05T20:37:13.116Z,8.17
2023-01-05T20:39:41.511Z,8.19
2023-01-05T20:42:11.050Z,8.18
2023-01-05T20:44:44.176Z,8.18
2023-01-05T20:47:12.529Z,8.20
2023-01-05T20:49:40.966Z,8.20
2023-01-05T20:52:10.450Z,8.20
2023-01-05T20:54:38.364Z,8.22
2023-01-05T20:57:06.505Z,8.22
2023-01-05T20:59:36.100Z,8.24
2023-01-05T21:02:05.744Z,8.25
2023-01-05T21:04:33.798Z,8.26
2023-01-05T21:07:01.319Z,8.26
2023-01-05T21:09:30.312Z,8.28
2023-01-05T21:11:59.228Z,8.28
2023-01-05T21:14:26.813Z,8.30
2023-01-05T21:16:54.962Z,8.30
2023-01-05T21:19:24.145Z,8.31
2023-01-05T21:21:54.665Z,8.32
2023-01-05T21:24:23.394Z,8.32
2023-01-05T21:26:51.089Z,8.34
2023-01-05T21:29:20.685Z,8.35
2023-01-05T21:31:50.380Z,8.36
2023-01-05T21:34:17.843Z,8.37
2023-01-05T21:36:45.977Z,8.37
2023-01-05T21:39:18.338Z,8.39
2023-01-05T21:42:05.286Z,8.41
2023-01-05T21:44:33.428Z,8.42
2023-01-05T21:47:01.533Z,8.44
2023-01-05T21:49:29.162Z,8.45
2023-01-05T21:52:14.923Z,8.46
2023-01-05T21:55:00.693Z,8.47
2023-01-05T21:57:28.076Z,8.48
2023-01-05T21:59:55.437Z,8.48
2023-01-05T22:02:22.769Z,8.50
2023-01-05T22:04:50.190Z,8.51
2023-01-05T22:07:17.473Z,8.53
2023-01-05T22:09:44.794Z,8.54
2023-01-05T22:12:12.131Z,8.56
2023-01-05T22:14:39.425Z,8.57
2023-01-05T22:17:09.020Z,8.59
2023-01-05T22:19:36.659Z,8.61
2023-01-05T22:22:04.604Z,8.62
2023-01-05T22:24:31.936Z,8.63
2023-01-05T22:27:00.765Z,8.65
2023-01-05T22:29:28.171Z,8.66
2023-01-05T22:31:55.612Z,8.67
2023-01-05T22:34:23.077Z,8.68
2023-01-05T22:36:50.752Z,8.69
2023-01-05T22:39:18.220Z,8.72
2023-01-05T22:41:46.634Z,8.72
2023-01-05T22:44:14.053Z,8.74
2023-01-05T22:46:41.883Z,8.76
2023-01-05T22:49:13.670Z,8.77
2023-01-05T22:51:41.335Z,8.78
2023-01-05T22:54:08.909Z,8.82
2023-01-05T22:56:36.502Z,8.83
2023-01-05T22:59:04.901Z,8.84
2023-01-05T23:01:35.359Z,8.87
2023-01-05T23:04:05.026Z,8.87
2023-01-05T23:06:33.543Z,8.88
2023-01-05T23:09:01.807Z,8.89
2023-01-05T23:11:31.806Z,8.89
2023-01-05T23:14:01.616Z,8.90
2023-01-05T23:16:28.987Z,8.91
2023-01-05T23:18:56.641Z,8.91
2023-01-05T23:21:26.202Z,8.93
2023-01-05T23:23:55.437Z,8.94
2023-01-05T23:26:23.659Z,8.95
2023-01-05T23:28:51.176Z,8.96
2023-01-05T23:31:19.398Z,8.97
2023-01-05T23:33:48.450Z,9.00
2023-01-05T23:36:17.861Z,9.01
2023-01-05T23:38:45.623Z,9.01
2023-01-05T23:41:15.053Z,9.03
2023-01-05T23:43:45.307Z,9.03
2023-01-05T23:46:16.580Z,9.03
2023-01-05T23:48:47.881Z,9.05
2023-01-05T23:51:16.996Z,9.05
2023-01-05T23:53:52.683Z,9.07
2023-01-05T23:56:31.417Z,9.06
2023-01-05T23:59:06.861Z,9.06
